sensor_id;sensor_type;location;lat;lon;timestamp;pressure;altitude;pressure_sealevel;temperature;humidity
20624;BME280;10471;42.736;23.346;2023-03-22T00:02:22;95202.34;;;9.54;100.00
20624;BME280;10471;42.736;23.346;2023-03-22T00:04:50;95201.81;;;9.52;100.00
20624;BME280;10471;42.736;23.346;2023-03-22T00:07:16;95201.78;;;9.57;100.00
20624;BME280;10471;42.736;23.346;2023-03-22T00:09:41;95201.78;;;9.57;100.00
20624;BME280;10471;42.736;23.346;2023-03-22T00:12:07;95196.06;;;9.50;100.00
20624;BME280;10471;42.736;23.346;2023-03-22T00:14:32;95201.28;;;9.55;100.00
20624;BME280;10471;42.736;23.346;2023-03-22T00:16:57;95196.84;;;9.46;100.00
20624;BME280;10471;42.736;23.346;2023-03-22T00:19:23;95198.13;;;9.53;100.00
20624;BME280;10471;42.736;23.346;2023-03-22T00:21:48;95195.22;;;9.55;100.00
20624;BME280;10471;42.736;23.346;2023-03-22T00:24:15;95192.34;;;9.56;100.00
20624;BME280;10471;42.736;23.346;2023-03-22T00:26:41;95193.47;;;9.45;100.00
20624;BME280;10471;42.736;23.346;2023-03-22T00:29:06;95192.91;;;9.48;100.00
20624;BME280;10471;42.736;23.346;2023-03-22T00:31:31;95187.66;;;9.43;100.00
20624;BME280;10471;42.736;23.346;2023-03-22T00:33:57;95195.63;;;9.33;100.00
20624;BME280;10471;42.736;23.346;2023-03-22T00:36:22;95185.84;;;9.39;100.00
20624;BME280;10471;42.736;23.346;2023-03-22T00:38:48;95184.75;;;9.45;100.00
20624;BME280;10471;42.736;23.346;2023-03-22T00:41:19;95184.03;;;9.39;100.00
20624;BME280;10471;42.736;23.346;2023-03-22T00:43:45;95185.09;;;9.33;100.00
20624;BME280;10471;42.736;23.346;2023-03-22T00:46:13;95175.16;;;9.25;100.00
20624;BME280;10471;42.736;23.346;2023-03-22T00:48:39;95179.94;;;9.18;100.00
20624;BME280;10471;42.736;23.346;2023-03-22T00:51:05;95181.75;;;9.18;100.00
20624;BME280;10471;42.736;23.346;2023-03-22T00:53:31;95170.50;;;9.08;100.00
20624;BME280;10471;42.736;23.346;2023-03-22T00:55:57;95177.38;;;9.04;100.00
20624;BME280;10471;42.736;23.346;2023-03-22T00:58:23;95174.22;;;9.02;100.00
20624;BME280;10471;42.736;23.346;2023-03-22T01:00:49;95175.25;;;9.06;100.00
20624;BME280;10471;42.736;23.346;2023-03-22T01:03:15;95168.44;;;9.05;100.00
20624;BME280;10471;42.736;23.346;2023-03-22T01:05:43;95164.78;;;8.96;100.00
20624;BME280;10471;42.736;23.346;2023-03-22T01:08:09;95172.13;;;8.99;100.00
20624;BME280;10471;42.736;23.346;2023-03-22T01:10:38;95167.38;;;9.01;100.00
20624;BME280;10471;42.736;23.346;2023-03-22T01:13:04;95166.84;;;9.09;100.00
20624;BME280;10471;42.736;23.346;2023-03-22T01:15:30;95161.03;;;9.12;100.00
20624;BME280;10471;42.736;23.346;2023-03-22T01:17:55;95163.66;;;9.12;100.00
20624;BME280;10471;42.736;23.346;2023-03-22T01:20:21;95157.88;;;9.14;100.00
20624;BME280;10471;42.736;23.346;2023-03-22T01:22:46;95165.75;;;9.14;100.00
20624;BME280;10471;42.736;23.346;2023-03-22T01:25:12;95155.78;;;9.07;100.00
20624;BME280;10471;42.736;23.346;2023-03-22T01:27:37;95155.25;;;9.14;100.00
20624;BME280;10471;42.736;23.346;2023-03-22T01:30:06;95157.88;;;9.14;100.00
20624;BME280;10471;42.736;23.346;2023-03-22T01:32:32;95156.53;;;9.17;100.00
20624;BME280;10471;42.736;23.346;2023-03-22T01:34:58;95153.59;;;9.23;100.00
20624;BME280;10471;42.736;23.346;2023-03-22T01:37:23;95151.25;;;9.22;100.00
20624;BME280;10471;42.736;23.346;2023-03-22T01:39:55;95150.72;;;9.20;100.00
20624;BME280;10471;42.736;23.346;2023-03-22T01:42:21;95147.31;;;9.24;100.00
20624;BME280;10471;42.736;23.346;2023-03-22T01:47:57;95150.97;;;9.23;100.00
20624;BME280;10471;42.736;23.346;2023-03-22T01:50:24;95150.41;;;9.26;100.00
20624;BME280;10471;42.736;23.346;2023-03-22T01:52:51;95157.78;;;9.29;100.00
20624;BME280;10471;42.736;23.346;2023-03-22T01:55:17;95151.72;;;9.29;100.00
20624;BME280;10471;42.736;23.346;2023-03-22T01:57:47;95149.34;;;9.32;100.00
20624;BME280;10471;42.736;23.346;2023-03-22T02:00:13;95152.78;;;9.33;100.00
20624;BME280;10471;42.736;23.346;2023-03-22T02:02:44;95148.31;;;9.28;100.00
20624;BME280;10471;42.736;23.346;2023-03-22T02:05:11;95158.34;;;9.21;100.00
20624;BME280;10471;42.736;23.346;2023-03-22T02:07:38;95149.41;;;9.22;100.00
20624;BME280;10471;42.736;23.346;2023-03-22T02:10:14;95151.47;;;9.30;100.00
20624;BME280;10471;42.736;23.346;2023-03-22T02:12:57;95152.56;;;9.24;100.00
20624;BME280;10471;42.736;23.346;2023-03-22T02:15:32;95145.28;;;9.07;100.00
20624;BME280;10471;42.736;23.346;2023-03-22T02:29:06;95154.28;;;8.91;100.00
20624;BME280;10471;42.736;23.346;2023-03-22T02:34:54;95159.84;;;8.84;100.00
20624;BME280;10471;42.736;23.346;2023-03-22T02:40:20;95167.47;;;8.81;100.00
20624;BME280;10471;42.736;23.346;2023-03-22T02:45:52;95166.34;;;8.97;100.00
20624;BME280;10471;42.736;23.346;2023-03-22T02:48:36;95170.59;;;8.88;100.00
20624;BME280;10471;42.736;23.346;2023-03-22T02:51:10;95170.59;;;8.93;100.00
20624;BME280;10471;42.736;23.346;2023-03-22T02:53:56;95176.13;;;8.86;100.00
20624;BME280;10471;42.736;23.346;2023-03-22T02:56:49;95170.09;;;8.81;100.00
20624;BME280;10471;42.736;23.346;2023-03-22T02:59:18;95177.47;;;8.84;100.00
20624;BME280;10471;42.736;23.346;2023-03-22T03:01:55;95173.25;;;8.83;100.00
20624;BME280;10471;42.736;23.346;2023-03-22T03:04:28;95173.78;;;8.75;100.00
20624;BME280;10471;42.736;23.346;2023-03-22T03:06:59;95173.78;;;8.80;100.00
20624;BME280;10471;42.736;23.346;2023-03-22T03:09:26;95178.50;;;8.83;100.00
20624;BME280;10471;42.736;23.346;2023-03-22T03:11:53;95176.16;;;8.76;100.00
20624;BME280;10471;42.736;23.346;2023-03-22T03:14:31;95172.00;;;8.70;100.00
20624;BME280;10471;42.736;23.346;2023-03-22T03:22:54;95179.31;;;8.73;100.00
20624;BME280;10471;42.736;23.346;2023-03-22T03:25:41;95177.25;;;8.70;100.00
20624;BME280;10471;42.736;23.346;2023-03-22T03:33:36;95175.66;;;8.69;100.00
20624;BME280;10471;42.736;23.346;2023-03-22T03:36:08;95185.38;;;8.69;100.00
20624;BME280;10471;42.736;23.346;2023-03-22T03:38:38;95177.47;;;8.69;100.00
20624;BME280;10471;42.736;23.346;2023-03-22T03:41:10;95180.91;;;8.69;100.00
20624;BME280;10471;42.736;23.346;2023-03-22T03:43:38;95190.88;;;8.72;100.00
20624;BME280;10471;42.736;23.346;2023-03-22T03:46:05;95182.72;;;8.74;100.00
20624;BME280;10471;42.736;23.346;2023-03-22T03:48:32;95192.19;;;8.70;100.00
20624;BME280;10471;42.736;23.346;2023-03-22T03:51:00;95189.28;;;8.71;100.00
20624;BME280;10471;42.736;23.346;2023-03-22T03:53:26;95190.09;;;8.72;100.00
20624;BME280;10471;42.736;23.346;2023-03-22T03:55:52;95188.00;;;8.69;100.00
20624;BME280;10471;42.736;23.346;2023-03-22T03:58:17;95199.03;;;8.71;100.00
20624;BME280;10471;42.736;23.346;2023-03-22T04:00:43;95199.03;;;8.66;100.00
20624;BME280;10471;42.736;23.346;2023-03-22T04:03:10;95196.97;;;8.63;100.00
20624;BME280;10471;42.736;23.346;2023-03-22T04:05:36;95199.59;;;8.63;100.00
20624;BME280;10471;42.736;23.346;2023-03-22T04:08:01;95201.41;;;8.62;100.00
20624;BME280;10471;42.736;23.346;2023-03-22T04:10:26;95201.66;;;8.66;100.00
20624;BME280;10471;42.736;23.346;2023-03-22T04:12:52;95205.34;;;8.60;100.00
20624;BME280;10471;42.736;23.346;2023-03-22T04:15:17;95211.13;;;8.67;100.00
20624;BME280;10471;42.736;23.346;2023-03-22T04:17:42;95207.97;;;8.60;100.00
20624;BME280;10471;42.736;23.346;2023-03-22T04:20:09;95206.94;;;8.61;100.00
20624;BME280;10471;42.736;23.346;2023-03-22T04:22:36;95208.78;;;8.60;100.00
20624;BME280;10471;42.736;23.346;2023-03-22T04:25:07;95201.16;;;8.59;100.00
20624;BME280;10471;42.736;23.346;2023-03-22T04:27:37;95209.56;;;8.61;100.00
20624;BME280;10471;42.736;23.346;2023-03-22T04:30:04;95213.25;;;8.60;100.00
20624;BME280;10471;42.736;23.346;2023-03-22T04:32:29;95214.28;;;8.64;100.00
20624;BME280;10471;42.736;23.346;2023-03-22T04:34:55;95210.09;;;8.63;100.00
20624;BME280;10471;42.736;23.346;2023-03-22T04:37:20;95209.00;;;8.69;100.00
20624;BME280;10471;42.736;23.346;2023-03-22T04:39:53;95213.75;;;8.67;100.00
20624;BME280;10471;42.736;23.346;2023-03-22T04:42:19;95207.97;;;8.70;100.00
20624;BME280;10471;42.736;23.346;2023-03-22T04:44:44;95211.13;;;8.72;100.00
20624;BME280;10471;42.736;23.346;2023-03-22T04:47:10;95217.97;;;8.68;100.00
20624;BME280;10471;42.736;23.346;2023-03-22T04:49:35;95216.38;;;8.72;100.00
20624;BME280;10471;42.736;23.346;2023-03-22T04:52:01;95220.03;;;8.71;100.00
20624;BME280;10471;42.736;23.346;2023-03-22T04:54:26;95227.41;;;8.69;100.00
20624;BME280;10471;42.736;23.346;2023-03-22T04:56:52;95229.75;;;8.75;100.00
20624;BME280;10471;42.736;23.346;2023-03-22T04:59:17;95230.78;;;8.79;100.00
20624;BME280;10471;42.736;23.346;2023-03-22T05:01:48;95232.38;;;8.80;100.00
20624;BME280;10471;42.736;23.346;2023-03-22T05:04:14;95229.75;;;8.80;100.00
20624;BME280;10471;42.736;23.346;2023-03-22T05:06:40;95230.00;;;8.84;100.00
20624;BME280;10471;42.736;23.346;2023-03-22T05:09:05;95234.16;;;8.90;100.00
20624;BME280;10471;42.736;23.346;2023-03-22T05:11:31;95235.75;;;8.91;100.00
20624;BME280;10471;42.736;23.346;2023-03-22T05:13:56;95243.91;;;8.89;100.00
20624;BME280;10471;42.736;23.346;2023-03-22T05:16:23;95240.72;;;8.97;100.00
20624;BME280;10471;42.736;23.346;2023-03-22T05:18:49;95242.28;;;9.03;100.00
20624;BME280;10471;42.736;23.346;2023-03-22T05:21:20;95251.00;;;8.94;100.00
20624;BME280;10471;42.736;23.346;2023-03-22T05:23:54;95256.72;;;9.01;100.00
20624;BME280;10471;42.736;23.346;2023-03-22T05:26:21;95261.19;;;9.05;100.00
20624;BME280;10471;42.736;23.346;2023-03-22T05:28:49;95251.72;;;9.09;100.00
20624;BME280;10471;42.736;23.346;2023-03-22T05:31:16;95265.13;;;9.13;100.00
20624;BME280;10471;42.736;23.346;2023-03-22T05:33:41;95255.13;;;9.14;100.00
20624;BME280;10471;42.736;23.346;2023-03-22T05:36:07;95255.41;;;9.08;100.00
20624;BME280;10471;42.736;23.346;2023-03-22T05:38:35;95261.41;;;9.18;100.00
20624;BME280;10471;42.736;23.346;2023-03-22T05:41:00;95261.94;;;9.15;100.00
20624;BME280;10471;42.736;23.346;2023-03-22T05:43:26;95263.75;;;9.25;100.00
20624;BME280;10471;42.736;23.346;2023-03-22T05:45:51;95263.50;;;9.21;100.00
20624;BME280;10471;42.736;23.346;2023-03-22T05:48:17;95262.69;;;9.26;100.00
20624;BME280;10471;42.736;23.346;2023-03-22T05:50:42;95264.31;;;9.17;100.00
20624;BME280;10471;42.736;23.346;2023-03-22T05:53:07;95271.94;;;9.13;100.00
20624;BME280;10471;42.736;23.346;2023-03-22T05:55:33;95276.13;;;9.19;100.00
20624;BME280;10471;42.736;23.346;2023-03-22T05:57:59;95271.63;;;9.30;100.00
20624;BME280;10471;42.736;23.346;2023-03-22T06:00:25;95278.16;;;9.37;100.00
20624;BME280;10471;42.736;23.346;2023-03-22T06:02:51;95277.63;;;9.40;100.00
20624;BME280;10471;42.736;23.346;2023-03-22T06:05:20;95279.16;;;9.46;100.00
20624;BME280;10471;42.736;23.346;2023-03-22T06:07:46;95277.03;;;9.53;100.00
20624;BME280;10471;42.736;23.346;2023-03-22T06:10:12;95283.88;;;9.54;100.00
20624;BME280;10471;42.736;23.346;2023-03-22T06:12:39;95286.00;;;9.47;100.00
20624;BME280;10471;42.736;23.346;2023-03-22T06:15:05;95282.56;;;9.57;100.00
20624;BME280;10471;42.736;23.346;2023-03-22T06:17:31;95289.13;;;9.54;100.00
20624;BME280;10471;42.736;23.346;2023-03-22T06:19:56;95290.16;;;9.58;100.00
20624;BME280;10471;42.736;23.346;2023-03-22T06:22:22;95292.31;;;9.51;100.00
20624;BME280;10471;42.736;23.346;2023-03-22T06:24:48;95299.66;;;9.54;100.00
20624;BME280;10471;42.736;23.346;2023-03-22T06:27:14;95301.22;;;9.60;100.00
20624;BME280;10471;42.736;23.346;2023-03-22T06:29:40;95298.59;;;9.60;100.00
20624;BME280;10471;42.736;23.346;2023-03-22T06:32:07;95295.44;;;9.53;100.00
20624;BME280;10471;42.736;23.346;2023-03-22T06:34:33;95294.41;;;9.54;100.00
20624;BME280;10471;42.736;23.346;2023-03-22T06:36:58;95294.41;;;9.54;100.00
20624;BME280;10471;42.736;23.346;2023-03-22T06:39:25;95305.44;;;9.61;100.00
20624;BME280;10471;42.736;23.346;2023-03-22T06:41:50;95307.47;;;9.69;100.00
20624;BME280;10471;42.736;23.346;2023-03-22T06:44:16;95302.22;;;9.69;100.00
20624;BME280;10471;42.736;23.346;2023-03-22T06:46:42;95308.00;;;9.71;100.00
20624;BME280;10471;42.736;23.346;2023-03-22T06:49:07;95319.50;;;9.85;100.00
20624;BME280;10471;42.736;23.346;2023-03-22T06:51:33;95310.78;;;9.94;100.00
20624;BME280;10471;42.736;23.346;2023-03-22T06:53:59;95318.91;;;9.93;100.00
20624;BME280;10471;42.736;23.346;2023-03-22T06:56:25;95323.91;;;10.04;100.00
20624;BME280;10471;42.736;23.346;2023-03-22T06:58:51;95324.13;;;10.13;100.00
20624;BME280;10471;42.736;23.346;2023-03-22T07:01:19;95324.81;;;10.23;100.00
20624;BME280;10471;42.736;23.346;2023-03-22T07:03:45;95323.03;;;10.19;100.00
20624;BME280;10471;42.736;23.346;2023-03-22T07:06:10;95327.28;;;10.10;100.00
20624;BME280;10471;42.736;23.346;2023-03-22T07:08:36;95332.59;;;10.00;100.00
20624;BME280;10471;42.736;23.346;2023-03-22T07:11:03;95336.81;;;10.01;100.00
20624;BME280;10471;42.736;23.346;2023-03-22T07:13:29;95338.88;;;10.09;100.00
20624;BME280;10471;42.736;23.346;2023-03-22T07:15:56;95343.09;;;10.05;100.00
20624;BME280;10471;42.736;23.346;2023-03-22T07:18:21;95340.75;;;10.03;100.00
20624;BME280;10471;42.736;23.346;2023-03-22T07:20:47;95337.84;;;10.05;100.00
20624;BME280;10471;42.736;23.346;2023-03-22T07:23:12;95337.50;;;10.21;100.00
20624;BME280;10471;42.736;23.346;2023-03-22T07:25:39;95345.81;;;10.33;100.00
20624;BME280;10471;42.736;23.346;2023-03-22T07:28:05;95350.38;;;10.23;100.00
20624;BME280;10471;42.736;23.346;2023-03-22T07:30:31;95342.41;;;10.33;100.00
20624;BME280;10471;42.736;23.346;2023-03-22T07:33:00;95351.38;;;10.32;100.00
20624;BME280;10471;42.736;23.346;2023-03-22T07:35:25;95348.13;;;10.45;100.00
20624;BME280;10471;42.736;23.346;2023-03-22T07:37:50;95355.59;;;10.33;100.00
20624;BME280;10471;42.736;23.346;2023-03-22T07:40:16;95351.91;;;10.34;100.00
20624;BME280;10471;42.736;23.346;2023-03-22T07:42:42;95357.09;;;10.44;100.00
20624;BME280;10471;42.736;23.346;2023-03-22T07:45:07;95359.69;;;10.48;100.00
20624;BME280;10471;42.736;23.346;2023-03-22T07:47:33;95362.88;;;10.45;100.00
20624;BME280;10471;42.736;23.346;2023-03-22T07:49:58;95355.53;;;10.43;100.00
20624;BME280;10471;42.736;23.346;2023-03-22T07:52:24;95368.13;;;10.45;100.00
20624;BME280;10471;42.736;23.346;2023-03-22T07:54:49;95374.41;;;10.54;100.00
20624;BME280;10471;42.736;23.346;2023-03-22T07:57:14;95374.94;;;10.51;100.00
20624;BME280;10471;42.736;23.346;2023-03-22T07:59:40;95370.00;;;10.45;100.00
20624;BME280;10471;42.736;23.346;2023-03-22T08:02:09;95370.84;;;10.36;100.00
20624;BME280;10471;42.736;23.346;2023-03-22T08:04:35;95379.56;;;10.31;100.00
20624;BME280;10471;42.736;23.346;2023-03-22T08:07:00;95380.06;;;10.33;100.00
20624;BME280;10471;42.736;23.346;2023-03-22T08:09:26;95382.41;;;10.40;100.00
20624;BME280;10471;42.736;23.346;2023-03-22T08:11:51;95376.03;;;10.45;100.00
20624;BME280;10471;42.736;23.346;2023-03-22T08:14:17;95378.09;;;10.53;100.00
20624;BME280;10471;42.736;23.346;2023-03-22T08:16:42;95383.41;;;10.48;100.00
20624;BME280;10471;42.736;23.346;2023-03-22T08:19:11;95378.69;;;10.41;100.00
20624;BME280;10471;42.736;23.346;2023-03-22T08:21:36;95369.47;;;10.43;100.00
20624;BME280;10471;42.736;23.346;2023-03-22T08:24:03;95376.88;;;10.41;100.00
20624;BME280;10471;42.736;23.346;2023-03-22T08:26:28;95379.19;;;10.47;100.00
20624;BME280;10471;42.736;23.346;2023-03-22T08:28:54;95388.78;;;10.34;100.00
20624;BME280;10471;42.736;23.346;2023-03-22T08:31:20;95390.81;;;10.42;100.00
20624;BME280;10471;42.736;23.346;2023-03-22T08:33:46;95383.97;;;10.41;100.00
20624;BME280;10471;42.736;23.346;2023-03-22T08:36:15;95396.69;;;10.34;100.00
20624;BME280;10471;42.736;23.346;2023-03-22T08:38:40;95396.72;;;10.29;100.00
20624;BME280;10471;42.736;23.346;2023-03-22T08:41:11;95402.75;;;10.29;100.00
20624;BME280;10471;42.736;23.346;2023-03-22T08:43:36;95400.91;;;10.25;100.00
20624;BME280;10471;42.736;23.346;2023-03-22T08:46:02;95403.50;;;10.35;100.00
20624;BME280;10471;42.736;23.346;2023-03-22T08:48:28;95401.94;;;10.34;100.00
20624;BME280;10471;42.736;23.346;2023-03-22T08:50:55;95396.34;;;10.45;100.00
20624;BME280;10471;42.736;23.346;2023-03-22T08:53:21;95394.03;;;10.34;100.00
20624;BME280;10471;42.736;23.346;2023-03-22T08:55:46;95395.06;;;10.38;100.00
20624;BME280;10471;42.736;23.346;2023-03-22T08:58:13;95392.56;;;10.18;100.00
20624;BME280;10471;42.736;23.346;2023-03-22T09:00:40;95396.75;;;10.24;100.00
20624;BME280;10471;42.736;23.346;2023-03-22T09:03:06;95403.84;;;10.23;100.00
20624;BME280;10471;42.736;23.346;2023-03-22T09:05:31;95394.59;;;10.26;100.00
20624;BME280;10471;42.736;23.346;2023-03-22T09:07:57;95400.44;;;10.18;100.00
20624;BME280;10471;42.736;23.346;2023-03-22T09:10:22;95413.91;;;10.16;100.00
20624;BME280;10471;42.736;23.346;2023-03-22T09:12:48;95415.22;;;10.09;100.00
20624;BME280;10471;42.736;23.346;2023-03-22T09:15:13;95412.28;;;10.20;100.00
20624;BME280;10471;42.736;23.346;2023-03-22T09:17:38;95416.66;;;10.35;100.00
20624;BME280;10471;42.736;23.346;2023-03-22T09:20:05;95411.41;;;10.40;100.00
20624;BME280;10471;42.736;23.346;2023-03-22T09:22:31;95422.50;;;10.27;100.00
20624;BME280;10471;42.736;23.346;2023-03-22T09:24:56;95415.44;;;10.17;100.00
20624;BME280;10471;42.736;23.346;2023-03-22T09:27:22;95421.50;;;10.18;100.00
20624;BME280;10471;42.736;23.346;2023-03-22T09:29:47;95424.69;;;10.10;100.00
20624;BME280;10471;42.736;23.346;2023-03-22T09:32:15;95412.59;;;10.09;100.00
20624;BME280;10471;42.736;23.346;2023-03-22T09:34:41;95417.84;;;10.19;100.00
20624;BME280;10471;42.736;23.346;2023-03-22T09:37:06;95418.06;;;10.22;100.00
20624;BME280;10471;42.736;23.346;2023-03-22T09:39:32;95411.00;;;10.13;100.00
20624;BME280;10471;42.736;23.346;2023-03-22T09:42:01;95416.53;;;10.16;100.00
20624;BME280;10471;42.736;23.346;2023-03-22T09:44:41;95411.94;;;10.32;100.00
20624;BME280;10471;42.736;23.346;2023-03-22T09:47:15;95412.94;;;10.41;100.00
20624;BME280;10471;42.736;23.346;2023-03-22T09:49:42;95411.06;;;10.51;100.00
20624;BME280;10471;42.736;23.346;2023-03-22T09:52:14;95413.44;;;10.47;100.00
20624;BME280;10471;42.736;23.346;2023-03-22T09:54:42;95422.91;;;10.53;100.00
20624;BME280;10471;42.736;23.346;2023-03-22T09:57:26;95417.25;;;10.70;100.00
20624;BME280;10471;42.736;23.346;2023-03-22T10:05:15;95424.63;;;11.06;100.00
20624;BME280;10471;42.736;23.346;2023-03-22T10:10:13;95427.25;;;11.06;100.00
20624;BME280;10471;42.736;23.346;2023-03-22T10:15:38;95433.09;;;10.98;100.00
20624;BME280;10471;42.736;23.346;2023-03-22T10:18:10;95436.22;;;11.05;100.00
20624;BME280;10471;42.736;23.346;2023-03-22T10:20:42;95435.41;;;11.10;100.00
20624;BME280;10471;42.736;23.346;2023-03-22T10:23:50;95437.78;;;11.11;100.00
20624;BME280;10471;42.736;23.346;2023-03-22T10:26:19;95440.09;;;11.17;100.00
20624;BME280;10471;42.736;23.346;2023-03-22T10:28:57;95436.72;;;11.07;100.00
20624;BME280;10471;42.736;23.346;2023-03-22T10:31:25;95439.19;;;10.99;100.00
20624;BME280;10471;42.736;23.346;2023-03-22T10:34:01;95437.59;;;10.98;100.00
20624;BME280;10471;42.736;23.346;2023-03-22T10:36:32;95430.34;;;11.13;100.00
20624;BME280;10471;42.736;23.346;2023-03-22T10:41:41;95427.63;;;11.23;100.00
20624;BME280;10471;42.736;23.346;2023-03-22T10:44:07;95429.16;;;11.29;100.00
20624;BME280;10471;42.736;23.346;2023-03-22T10:46:39;95430.66;;;11.40;100.00
20624;BME280;10471;42.736;23.346;2023-03-22T10:49:06;95429.09;;;11.34;100.00
20624;BME280;10471;42.736;23.346;2023-03-22T10:51:39;95432.84;;;11.28;100.00
20624;BME280;10471;42.736;23.346;2023-03-22T10:54:11;95430.88;;;11.43;100.00
20624;BME280;10471;42.736;23.346;2023-03-22T10:56:38;95430.69;;;11.35;100.00
20624;BME280;10471;42.736;23.346;2023-03-22T10:59:03;95428.28;;;11.38;100.00
20624;BME280;10471;42.736;23.346;2023-03-22T11:01:32;95424.25;;;11.51;100.00
20624;BME280;10471;42.736;23.346;2023-03-22T11:04:12;95425.59;;;11.43;100.00
20624;BME280;10471;42.736;23.346;2023-03-22T11:06:51;95424.44;;;11.26;100.00
20624;BME280;10471;42.736;23.346;2023-03-22T11:09:22;95428.75;;;11.45;100.00
20624;BME280;10471;42.736;23.346;2023-03-22T11:11:57;95428.81;;;11.40;100.00
20624;BME280;10471;42.736;23.346;2023-03-22T11:14:41;95434.34;;;11.39;100.00
20624;BME280;10471;42.736;23.346;2023-03-22T11:17:11;95422.25;;;11.38;100.00
20624;BME280;10471;42.736;23.346;2023-03-22T11:19:51;95425.00;;;11.23;100.00
20624;BME280;10471;42.736;23.346;2023-03-22T11:24:46;95420.31;;;11.43;100.00
20624;BME280;10471;42.736;23.346;2023-03-22T11:27:26;95415.28;;;11.47;100.00
20624;BME280;10471;42.736;23.346;2023-03-22T11:29:57;95413.13;;;11.49;100.00
20624;BME280;10471;42.736;23.346;2023-03-22T11:32:31;95418.50;;;11.39;100.00
20624;BME280;10471;42.736;23.346;2023-03-22T11:37:46;95410.75;;;11.24;100.00
20624;BME280;10471;42.736;23.346;2023-03-22T11:40:17;95411.13;;;11.41;100.00
20624;BME280;10471;42.736;23.346;2023-03-22T11:42:43;95406.78;;;11.55;100.00
20624;BME280;10471;42.736;23.346;2023-03-22T11:45:15;95412.56;;;11.57;100.00
20624;BME280;10471;42.736;23.346;2023-03-22T11:47:43;95406.41;;;11.66;100.00
20624;BME280;10471;42.736;23.346;2023-03-22T11:50:24;95417.09;;;11.79;100.00
20624;BME280;10471;42.736;23.346;2023-03-22T11:52:51;95412.22;;;11.86;100.00
20624;BME280;10471;42.736;23.346;2023-03-22T11:55:18;95413.19;;;11.95;100.00
20624;BME280;10471;42.736;23.346;2023-03-22T11:57:43;95410.94;;;12.07;100.00
20624;BME280;10471;42.736;23.346;2023-03-22T12:00:17;95411.03;;;12.21;100.00
20624;BME280;10471;42.736;23.346;2023-03-22T12:02:51;95416.88;;;12.18;100.00
20624;BME280;10471;42.736;23.346;2023-03-22T12:05:33;95423.94;;;12.22;100.00
20624;BME280;10471;42.736;23.346;2023-03-22T12:10:52;95413.25;;;12.32;100.00
20624;BME280;10471;42.736;23.346;2023-03-22T12:13:48;95412.47;;;12.32;100.00
20624;BME280;10471;42.736;23.346;2023-03-22T12:16:14;95408.84;;;12.46;100.00
20624;BME280;10471;42.736;23.346;2023-03-22T12:18:54;95406.53;;;12.58;100.00
20624;BME280;10471;42.736;23.346;2023-03-22T12:21:25;95400.78;;;12.74;100.00
20624;BME280;10471;42.736;23.346;2023-03-22T12:23:53;95410.47;;;12.79;100.00
20624;BME280;10471;42.736;23.346;2023-03-22T12:26:26;95407.25;;;12.82;100.00
20624;BME280;10471;42.736;23.346;2023-03-22T12:29:14;95399.63;;;12.62;100.00
20624;BME280;10471;42.736;23.346;2023-03-22T12:32:27;95393.75;;;12.83;100.00
20624;BME280;10471;42.736;23.346;2023-03-22T12:34:43;95399.97;;;12.74;100.00
20624;BME280;10471;42.736;23.346;2023-03-22T12:37:18;95395.81;;;12.68;100.00
20624;BME280;10471;42.736;23.346;2023-03-22T12:39:52;95390.41;;;12.78;100.00
20624;BME280;10471;42.736;23.346;2023-03-22T12:42:23;95385.59;;;12.98;100.00
20624;BME280;10471;42.736;23.346;2023-03-22T12:44:53;95392.44;;;13.17;100.00
20624;BME280;10471;42.736;23.346;2023-03-22T12:47:29;95398.38;;;13.09;100.00
20624;BME280;10471;42.736;23.346;2023-03-22T12:52:36;95389.94;;;13.39;100.00
20624;BME280;10471;42.736;23.346;2023-03-22T12:55:04;95390.22;;;13.38;100.00
20624;BME280;10471;42.736;23.346;2023-03-22T12:57:30;95391.00;;;13.38;100.00
20624;BME280;10471;42.736;23.346;2023-03-22T12:59:57;95388.69;;;13.50;100.00
20624;BME280;10471;42.736;23.346;2023-03-22T13:02:33;95395.44;;;13.56;100.00
20624;BME280;10471;42.736;23.346;2023-03-22T13:05:01;95384.66;;;13.39;100.00
20624;BME280;10471;42.736;23.346;2023-03-22T13:13:31;95386.50;;;13.07;100.00
20624;BME280;10471;42.736;23.346;2023-03-22T13:21:11;95390.34;;;13.14;100.00
20624;BME280;10471;42.736;23.346;2023-03-22T13:26:51;95380.34;;;13.11;100.00
20624;BME280;10471;42.736;23.346;2023-03-22T13:29:23;95383.25;;;13.28;100.00
20624;BME280;10471;42.736;23.346;2023-03-22T13:34:31;95373.56;;;13.51;100.00
20624;BME280;10471;42.736;23.346;2023-03-22T13:37:00;95380.38;;;13.70;100.00
20624;BME280;10471;42.736;23.346;2023-03-22T13:39:32;95372.41;;;13.97;100.00
20624;BME280;10471;42.736;23.346;2023-03-22T13:42:17;95373.19;;;14.24;100.00
20624;BME280;10471;42.736;23.346;2023-03-22T13:44:44;95370.34;;;14.69;100.00
20624;BME280;10471;42.736;23.346;2023-03-22T13:52:39;95380.59;;;15.50;100.00
20624;BME280;10471;42.736;23.346;2023-03-22T13:55:32;95374.91;;;15.73;100.00
20624;BME280;10471;42.736;23.346;2023-03-22T13:58:00;95370.50;;;15.69;100.00
20624;BME280;10471;42.736;23.346;2023-03-22T14:03:10;95374.88;;;15.65;100.00
20624;BME280;10471;42.736;23.346;2023-03-22T14:05:38;95363.94;;;15.36;100.00
20624;BME280;10471;42.736;23.346;2023-03-22T14:08:04;95372.22;;;15.34;100.00
20624;BME280;10471;42.736;23.346;2023-03-22T14:15:50;95367.44;;;15.45;100.00
20624;BME280;10471;42.736;23.346;2023-03-22T14:18:31;95373.88;;;15.52;100.00
20624;BME280;10471;42.736;23.346;2023-03-22T14:20:59;95378.16;;;15.62;100.00
20624;BME280;10471;42.736;23.346;2023-03-22T14:23:32;95367.16;;;15.55;100.00